sensor_id;sensor_type;location;lat;lon;timestamp;temperature;humidity
57434;DHT22;43277;52.672;6.984;2023-07-29T00:01:37;18.10;99.90
57434;DHT22;43277;52.672;6.984;2023-07-29T00:04:05;18.00;99.90
57434;DHT22;43277;52.672;6.984;2023-07-29T00:06:30;18.00;99.90
57434;DHT22;43277;52.672;6.984;2023-07-29T00:08:56;18.00;99.90
57434;DHT22;43277;52.672;6.984;2023-07-29T00:11:22;17.90;99.90
57434;DHT22;43277;52.672;6.984;2023-07-29T00:13:47;17.90;99.90
57434;DHT22;43277;52.672;6.984;2023-07-29T00:16:15;17.90;99.90
57434;DHT22;43277;52.672;6.984;2023-07-29T00:18:43;17.80;99.90
57434;DHT22;43277;52.672;6.984;2023-07-29T00:21:08;17.80;99.90
57434;DHT22;43277;52.672;6.984;2023-07-29T00:23:34;17.70;99.90
57434;DHT22;43277;52.672;6.984;2023-07-29T00:26:00;17.70;99.90
57434;DHT22;43277;52.672;6.984;2023-07-29T00:28:25;17.70;99.90
57434;DHT22;43277;52.672;6.984;2023-07-29T00:30:51;17.70;99.90
57434;DHT22;43277;52.672;6.984;2023-07-29T00:33:16;17.60;99.90
57434;DHT22;43277;52.672;6.984;2023-07-29T00:35:42;17.70;99.90
57434;DHT22;43277;52.672;6.984;2023-07-29T00:38:08;17.60;99.90
57434;DHT22;43277;52.672;6.984;2023-07-29T00:40:35;17.60;99.90
57434;DHT22;43277;52.672;6.984;2023-07-29T00:43:01;17.50;99.90
57434;DHT22;43277;52.672;6.984;2023-07-29T00:45:27;17.50;99.90
57434;DHT22;43277;52.672;6.984;2023-07-29T00:47:54;17.50;99.90
57434;DHT22;43277;52.672;6.984;2023-07-29T00:50:20;17.50;99.90
57434;DHT22;43277;52.672;6.984;2023-07-29T00:52:46;17.50;99.90
57434;DHT22;43277;52.672;6.984;2023-07-29T00:55:12;17.60;99.90
57434;DHT22;43277;52.672;6.984;2023-07-29T00:57:37;17.50;99.90
57434;DHT22;43277;52.672;6.984;2023-07-29T01:00:05;17.50;99.90
57434;DHT22;43277;52.672;6.984;2023-07-29T01:02:31;17.60;99.90
57434;DHT22;43277;52.672;6.984;2023-07-29T01:04:58;17.60;99.90
57434;DHT22;43277;52.672;6.984;2023-07-29T01:07:39;17.60;99.90
57434;DHT22;43277;52.672;6.984;2023-07-29T01:10:10;17.60;99.90
57434;DHT22;43277;52.672;6.984;2023-07-29T01:12:54;17.60;99.90
57434;DHT22;43277;52.672;6.984;2023-07-29T01:18:27;17.70;99.90
57434;DHT22;43277;52.672;6.984;2023-07-29T01:20:59;17.70;99.90
57434;DHT22;43277;52.672;6.984;2023-07-29T01:23:30;17.70;99.90
57434;DHT22;43277;52.672;6.984;2023-07-29T01:25:55;17.70;99.90
57434;DHT22;43277;52.672;6.984;2023-07-29T01:28:21;17.60;99.90
57434;DHT22;43277;52.672;6.984;2023-07-29T01:30:49;17.70;99.90
57434;DHT22;43277;52.672;6.984;2023-07-29T01:33:18;17.70;99.90
57434;DHT22;43277;52.672;6.984;2023-07-29T01:35:49;17.60;99.90
57434;DHT22;43277;52.672;6.984;2023-07-29T01:38:24;17.60;99.90
57434;DHT22;43277;52.672;6.984;2023-07-29T01:40:53;17.60;99.90
57434;DHT22;43277;52.672;6.984;2023-07-29T01:43:20;17.60;99.90
57434;DHT22;43277;52.672;6.984;2023-07-29T01:45:49;17.60;99.90
57434;DHT22;43277;52.672;6.984;2023-07-29T01:48:15;17.60;99.90
57434;DHT22;43277;52.672;6.984;2023-07-29T01:50:40;17.60;99.90
57434;DHT22;43277;52.672;6.984;2023-07-29T01:53:06;17.60;99.90
57434;DHT22;43277;52.672;6.984;2023-07-29T01:55:31;17.60;99.90
57434;DHT22;43277;52.672;6.984;2023-07-29T01:57:57;17.70;99.90
57434;DHT22;43277;52.672;6.984;2023-07-29T02:00:23;17.70;99.90
57434;DHT22;43277;52.672;6.984;2023-07-29T02:02:49;17.60;99.90
57434;DHT22;43277;52.672;6.984;2023-07-29T02:05:15;17.70;99.90
57434;DHT22;43277;52.672;6.984;2023-07-29T02:07:40;17.70;99.90
57434;DHT22;43277;52.672;6.984;2023-07-29T02:10:06;17.60;99.90
57434;DHT22;43277;52.672;6.984;2023-07-29T02:12:33;17.70;99.90
57434;DHT22;43277;52.672;6.984;2023-07-29T02:14:58;17.70;99.90
57434;DHT22;43277;52.672;6.984;2023-07-29T02:17:24;17.60;99.90
57434;DHT22;43277;52.672;6.984;2023-07-29T02:19:52;17.60;99.90
57434;DHT22;43277;52.672;6.984;2023-07-29T02:22:18;17.60;99.90
57434;DHT22;43277;52.672;6.984;2023-07-29T02:24:44;17.60;99.90
57434;DHT22;43277;52.672;6.984;2023-07-29T02:27:10;17.70;99.90
57434;DHT22;43277;52.672;6.984;2023-07-29T02:29:36;17.70;99.90
57434;DHT22;43277;52.672;6.984;2023-07-29T02:32:02;17.80;99.90
57434;DHT22;43277;52.672;6.984;2023-07-29T02:34:29;17.70;99.90
57434;DHT22;43277;52.672;6.984;2023-07-29T02:36:54;17.70;99.90
57434;DHT22;43277;52.672;6.984;2023-07-29T02:39:20;17.70;99.90
57434;DHT22;43277;52.672;6.984;2023-07-29T02:41:46;17.70;99.90
57434;DHT22;43277;52.672;6.984;2023-07-29T02:44:12;17.70;99.90
57434;DHT22;43277;52.672;6.984;2023-07-29T02:46:37;17.70;99.90
57434;DHT22;43277;52.672;6.984;2023-07-29T02:49:03;17.70;99.90
57434;DHT22;43277;52.672;6.984;2023-07-29T02:51:30;17.70;99.90
57434;DHT22;43277;52.672;6.984;2023-07-29T02:53:55;17.70;99.90
57434;DHT22;43277;52.672;6.984;2023-07-29T02:56:21;17.60;99.90
57434;DHT22;43277;52.672;6.984;2023-07-29T02:58:47;17.60;99.90
57434;DHT22;43277;52.672;6.984;2023-07-29T03:01:13;17.60;99.90
57434;DHT22;43277;52.672;6.984;2023-07-29T03:03:39;17.60;99.90
57434;DHT22;43277;52.672;6.984;2023-07-29T03:06:07;17.50;99.90
57434;DHT22;43277;52.672;6.984;2023-07-29T03:08:33;17.60;99.90
57434;DHT22;43277;52.672;6.984;2023-07-29T03:11:04;17.60;99.90
57434;DHT22;43277;52.672;6.984;2023-07-29T03:13:30;17.60;99.90
57434;DHT22;43277;52.672;6.984;2023-07-29T03:16:07;17.60;99.90
57434;DHT22;43277;52.672;6.984;2023-07-29T03:18:33;17.60;99.90
57434;DHT22;43277;52.672;6.984;2023-07-29T03:20:59;17.60;99.90
57434;DHT22;43277;52.672;6.984;2023-07-29T03:23:25;17.50;99.90
57434;DHT22;43277;52.672;6.984;2023-07-29T03:25:50;17.50;99.90
57434;DHT22;43277;52.672;6.984;2023-07-29T03:28:25;17.40;99.90
57434;DHT22;43277;52.672;6.984;2023-07-29T03:30:56;17.40;99.90
57434;DHT22;43277;52.672;6.984;2023-07-29T03:33:22;17.30;99.90
57434;DHT22;43277;52.672;6.984;2023-07-29T03:35:48;17.30;99.90
57434;DHT22;43277;52.672;6.984;2023-07-29T03:38:14;17.20;99.90
57434;DHT22;43277;52.672;6.984;2023-07-29T03:40:40;17.20;99.90
57434;DHT22;43277;52.672;6.984;2023-07-29T03:43:06;17.30;99.90
57434;DHT22;43277;52.672;6.984;2023-07-29T03:45:32;17.30;99.90
57434;DHT22;43277;52.672;6.984;2023-07-29T03:47:58;17.30;99.90
57434;DHT22;43277;52.672;6.984;2023-07-29T03:50:23;17.30;99.90
57434;DHT22;43277;52.672;6.984;2023-07-29T03:52:50;17.20;99.90
57434;DHT22;43277;52.672;6.984;2023-07-29T03:55:15;17.20;99.90
57434;DHT22;43277;52.672;6.984;2023-07-29T03:57:41;17.20;99.90
57434;DHT22;43277;52.672;6.984;2023-07-29T04:00:07;17.20;99.90
57434;DHT22;43277;52.672;6.984;2023-07-29T04:02:34;17.20;99.90
57434;DHT22;43277;52.672;6.984;2023-07-29T04:05:03;17.20;99.90
57434;DHT22;43277;52.672;6.984;2023-07-29T04:07:29;17.20;99.90
57434;DHT22;43277;52.672;6.984;2023-07-29T04:09:55;17.20;99.90
57434;DHT22;43277;52.672;6.984;2023-07-29T04:12:21;17.20;99.90
57434;DHT22;43277;52.672;6.984;2023-07-29T04:14:47;17.20;99.90
57434;DHT22;43277;52.672;6.984;2023-07-29T04:17:12;17.10;99.90
57434;DHT22;43277;52.672;6.984;2023-07-29T04:19:38;17.10;99.90
57434;DHT22;43277;52.672;6.984;2023-07-29T04:22:04;17.10;99.90
57434;DHT22;43277;52.672;6.984;2023-07-29T04:24:30;17.00;99.90
57434;DHT22;43277;52.672;6.984;2023-07-29T04:26:55;17.00;99.90
57434;DHT22;43277;52.672;6.984;2023-07-29T04:29:21;17.00;99.90
57434;DHT22;43277;52.672;6.984;2023-07-29T04:31:51;17.00;99.90
57434;DHT22;43277;52.672;6.984;2023-07-29T04:34:18;17.00;99.90
57434;DHT22;43277;52.672;6.984;2023-07-29T04:36:44;17.00;99.90
57434;DHT22;43277;52.672;6.984;2023-07-29T04:39:10;16.90;99.90
57434;DHT22;43277;52.672;6.984;2023-07-29T04:41:36;16.90;99.90
57434;DHT22;43277;52.672;6.984;2023-07-29T04:44:01;17.00;99.90
57434;DHT22;43277;52.672;6.984;2023-07-29T04:46:27;16.90;99.90
57434;DHT22;43277;52.672;6.984;2023-07-29T04:48:52;16.90;99.90
57434;DHT22;43277;52.672;6.984;2023-07-29T04:51:18;17.00;99.90
57434;DHT22;43277;52.672;6.984;2023-07-29T04:53:44;17.00;99.90
57434;DHT22;43277;52.672;6.984;2023-07-29T04:56:09;17.00;99.90
57434;DHT22;43277;52.672;6.984;2023-07-29T04:58:35;17.00;99.90
57434;DHT22;43277;52.672;6.984;2023-07-29T05:01:02;17.00;99.90
57434;DHT22;43277;52.672;6.984;2023-07-29T05:03:28;17.00;99.90
57434;DHT22;43277;52.672;6.984;2023-07-29T05:05:54;17.00;99.90
57434;DHT22;43277;52.672;6.984;2023-07-29T05:08:21;17.10;99.90
57434;DHT22;43277;52.672;6.984;2023-07-29T05:10:51;17.10;99.90
57434;DHT22;43277;52.672;6.984;2023-07-29T05:13:17;17.10;99.90
57434;DHT22;43277;52.672;6.984;2023-07-29T05:15:43;17.10;99.90
57434;DHT22;43277;52.672;6.984;2023-07-29T05:18:09;17.10;99.90
57434;DHT22;43277;52.672;6.984;2023-07-29T05:20:34;17.20;99.90
57434;DHT22;43277;52.672;6.984;2023-07-29T05:23:00;17.20;99.90
57434;DHT22;43277;52.672;6.984;2023-07-29T05:25:26;17.20;99.90
57434;DHT22;43277;52.672;6.984;2023-07-29T05:27:52;17.30;99.90
57434;DHT22;43277;52.672;6.984;2023-07-29T05:30:17;17.40;99.90
57434;DHT22;43277;52.672;6.984;2023-07-29T05:32:43;17.40;99.90
57434;DHT22;43277;52.672;6.984;2023-07-29T05:35:09;17.40;99.90
57434;DHT22;43277;52.672;6.984;2023-07-29T05:37:37;17.50;99.90
57434;DHT22;43277;52.672;6.984;2023-07-29T05:40:03;17.50;99.90
57434;DHT22;43277;52.672;6.984;2023-07-29T05:42:29;17.60;99.90
57434;DHT22;43277;52.672;6.984;2023-07-29T05:44:55;17.60;99.90
57434;DHT22;43277;52.672;6.984;2023-07-29T05:47:20;17.70;99.90
57434;DHT22;43277;52.672;6.984;2023-07-29T05:49:46;17.70;99.90
57434;DHT22;43277;52.672;6.984;2023-07-29T05:52:12;17.70;99.90
57434;DHT22;43277;52.672;6.984;2023-07-29T05:54:37;17.70;99.90
57434;DHT22;43277;52.672;6.984;2023-07-29T05:57:03;17.70;99.90
57434;DHT22;43277;52.672;6.984;2023-07-29T05:59:28;17.80;99.90
57434;DHT22;43277;52.672;6.984;2023-07-29T06:01:55;17.90;99.90
57434;DHT22;43277;52.672;6.984;2023-07-29T06:04:20;18.00;99.90
57434;DHT22;43277;52.672;6.984;2023-07-29T06:06:46;18.00;99.90
57434;DHT22;43277;52.672;6.984;2023-07-29T06:09:12;18.10;99.90
57434;DHT22;43277;52.672;6.984;2023-07-29T06:11:37;18.00;99.90
57434;DHT22;43277;52.672;6.984;2023-07-29T06:14:03;18.20;99.90
57434;DHT22;43277;52.672;6.984;2023-07-29T06:16:28;18.20;99.90
57434;DHT22;43277;52.672;6.984;2023-07-29T06:18:54;18.20;99.90
57434;DHT22;43277;52.672;6.984;2023-07-29T06:21:20;18.30;99.90
57434;DHT22;43277;52.672;6.984;2023-07-29T06:23:46;18.40;99.90
57434;DHT22;43277;52.672;6.984;2023-07-29T06:26:11;18.40;99.90
57434;DHT22;43277;52.672;6.984;2023-07-29T06:28:37;18.40;99.90
57434;DHT22;43277;52.672;6.984;2023-07-29T06:31:03;18.40;99.90
57434;DHT22;43277;52.672;6.984;2023-07-29T06:33:28;18.50;99.90
57434;DHT22;43277;52.672;6.984;2023-07-29T06:35:54;18.50;99.90
57434;DHT22;43277;52.672;6.984;2023-07-29T06:38:19;18.70;99.90
57434;DHT22;43277;52.672;6.984;2023-07-29T06:40:50;18.60;99.90
57434;DHT22;43277;52.672;6.984;2023-07-29T06:43:16;18.60;99.90
57434;DHT22;43277;52.672;6.984;2023-07-29T06:45:42;18.70;99.90
57434;DHT22;43277;52.672;6.984;2023-07-29T06:48:08;18.70;99.90
57434;DHT22;43277;52.672;6.984;2023-07-29T06:50:33;18.70;99.90
57434;DHT22;43277;52.672;6.984;2023-07-29T06:52:59;18.70;99.90
57434;DHT22;43277;52.672;6.984;2023-07-29T06:55:25;18.70;99.90
57434;DHT22;43277;52.672;6.984;2023-07-29T06:57:50;18.90;99.90
57434;DHT22;43277;52.672;6.984;2023-07-29T07:00:16;19.00;99.90
57434;DHT22;43277;52.672;6.984;2023-07-29T07:02:42;19.10;99.90
57434;DHT22;43277;52.672;6.984;2023-07-29T07:05:07;19.10;99.90
57434;DHT22;43277;52.672;6.984;2023-07-29T07:07:33;19.20;99.90
57434;DHT22;43277;52.672;6.984;2023-07-29T07:09:59;19.20;99.90
57434;DHT22;43277;52.672;6.984;2023-07-29T07:12:24;19.10;99.90
57434;DHT22;43277;52.672;6.984;2023-07-29T07:14:50;19.10;99.90
57434;DHT22;43277;52.672;6.984;2023-07-29T07:17:16;19.20;99.90
57434;DHT22;43277;52.672;6.984;2023-07-29T07:19:41;19.10;99.90
57434;DHT22;43277;52.672;6.984;2023-07-29T07:22:07;19.10;99.90
57434;DHT22;43277;52.672;6.984;2023-07-29T07:24:32;19.20;99.90
57434;DHT22;43277;52.672;6.984;2023-07-29T07:26:58;19.20;99.90
57434;DHT22;43277;52.672;6.984;2023-07-29T07:29:24;19.10;99.90
57434;DHT22;43277;52.672;6.984;2023-07-29T07:31:54;19.10;99.90
57434;DHT22;43277;52.672;6.984;2023-07-29T07:34:23;19.10;99.90
57434;DHT22;43277;52.672;6.984;2023-07-29T07:36:49;19.10;99.90
57434;DHT22;43277;52.672;6.984;2023-07-29T07:39:14;19.20;99.90
57434;DHT22;43277;52.672;6.984;2023-07-29T07:41:41;19.50;99.90
57434;DHT22;43277;52.672;6.984;2023-07-29T07:44:07;19.60;99.90
57434;DHT22;43277;52.672;6.984;2023-07-29T07:46:33;19.70;99.90
57434;DHT22;43277;52.672;6.984;2023-07-29T07:48:58;19.70;99.90
57434;DHT22;43277;52.672;6.984;2023-07-29T07:51:24;19.90;99.90
57434;DHT22;43277;52.672;6.984;2023-07-29T07:53:50;19.80;99.90
57434;DHT22;43277;52.672;6.984;2023-07-29T07:56:15;19.90;99.90
57434;DHT22;43277;52.672;6.984;2023-07-29T07:58:41;19.90;99.90
57434;DHT22;43277;52.672;6.984;2023-07-29T08:01:09;19.90;99.90
57434;DHT22;43277;52.672;6.984;2023-07-29T08:03:35;19.90;99.90
57434;DHT22;43277;52.672;6.984;2023-07-29T08:06:02;19.90;99.90
57434;DHT22;43277;52.672;6.984;2023-07-29T08:08:28;20.00;99.90
57434;DHT22;43277;52.672;6.984;2023-07-29T08:10:54;20.00;99.90
57434;DHT22;43277;52.672;6.984;2023-07-29T08:13:22;20.10;99.90
57434;DHT22;43277;52.672;6.984;2023-07-29T08:15:48;20.20;99.90
57434;DHT22;43277;52.672;6.984;2023-07-29T08:18:15;20.40;99.90
57434;DHT22;43277;52.672;6.984;2023-07-29T08:20:41;20.50;99.90
57434;DHT22;43277;52.672;6.984;2023-07-29T08:23:07;20.50;99.90
57434;DHT22;43277;52.672;6.984;2023-07-29T08:25:32;20.60;99.90
57434;DHT22;43277;52.672;6.984;2023-07-29T08:27:58;20.60;99.90
57434;DHT22;43277;52.672;6.984;2023-07-29T08:30:23;20.60;99.90
57434;DHT22;43277;52.672;6.984;2023-07-29T08:32:49;20.60;99.90
57434;DHT22;43277;52.672;6.984;2023-07-29T08:35:15;20.70;99.90
57434;DHT22;43277;52.672;6.984;2023-07-29T08:37:41;20.90;99.90
57434;DHT22;43277;52.672;6.984;2023-07-29T08:40:07;21.00;99.90
57434;DHT22;43277;52.672;6.984;2023-07-29T08:42:34;21.10;99.90
57434;DHT22;43277;52.672;6.984;2023-07-29T08:45:07;21.10;99.90
57434;DHT22;43277;52.672;6.984;2023-07-29T08:47:37;21.20;99.90
57434;DHT22;43277;52.672;6.984;2023-07-29T08:50:03;21.20;99.90
57434;DHT22;43277;52.672;6.984;2023-07-29T08:52:29;21.20;99.90
57434;DHT22;43277;52.672;6.984;2023-07-29T08:54:57;21.10;99.90
57434;DHT22;43277;52.672;6.984;2023-07-29T08:57:23;21.20;99.90
57434;DHT22;43277;52.672;6.984;2023-07-29T08:59:49;21.20;99.90
57434;DHT22;43277;52.672;6.984;2023-07-29T09:02:15;21.30;99.90
57434;DHT22;43277;52.672;6.984;2023-07-29T09:04:41;21.30;99.90
57434;DHT22;43277;52.672;6.984;2023-07-29T09:07:08;21.40;99.90
57434;DHT22;43277;52.672;6.984;2023-07-29T09:09:34;21.50;99.90
57434;DHT22;43277;52.672;6.984;2023-07-29T09:11:59;21.40;99.90
57434;DHT22;43277;52.672;6.984;2023-07-29T09:14:25;21.30;99.90
57434;DHT22;43277;52.672;6.984;2023-07-29T09:16:52;21.30;99.90
57434;DHT22;43277;52.672;6.984;2023-07-29T09:19:18;21.20;99.90
57434;DHT22;43277;52.672;6.984;2023-07-29T09:21:46;21.20;99.90
57434;DHT22;43277;52.672;6.984;2023-07-29T09:24:16;21.30;99.90
57434;DHT22;43277;52.672;6.984;2023-07-29T09:26:49;21.30;99.90
57434;DHT22;43277;52.672;6.984;2023-07-29T09:29:15;21.40;99.90
57434;DHT22;43277;52.672;6.984;2023-07-29T09:31:40;21.50;99.90
57434;DHT22;43277;52.672;6.984;2023-07-29T09:34:06;21.40;99.90
57434;DHT22;43277;52.672;6.984;2023-07-29T09:36:33;21.40;99.90
57434;DHT22;43277;52.672;6.984;2023-07-29T09:38:59;21.50;99.90
57434;DHT22;43277;52.672;6.984;2023-07-29T09:41:26;21.70;99.90
57434;DHT22;43277;52.672;6.984;2023-07-29T09:44:00;21.80;99.90
57434;DHT22;43277;52.672;6.984;2023-07-29T09:46:33;22.00;99.90
57434;DHT22;43277;52.672;6.984;2023-07-29T09:48:59;22.10;99.90
57434;DHT22;43277;52.672;6.984;2023-07-29T09:51:24;22.20;99.90
57434;DHT22;43277;52.672;6.984;2023-07-29T09:53:51;22.10;99.90
57434;DHT22;43277;52.672;6.984;2023-07-29T09:56:17;22.30;99.90
57434;DHT22;43277;52.672;6.984;2023-07-29T09:58:48;22.60;99.90
57434;DHT22;43277;52.672;6.984;2023-07-29T10:01:13;22.70;99.90
57434;DHT22;43277;52.672;6.984;2023-07-29T10:03:42;22.60;99.90
57434;DHT22;43277;52.672;6.984;2023-07-29T10:06:09;22.60;99.90
57434;DHT22;43277;52.672;6.984;2023-07-29T10:08:35;22.40;99.90
57434;DHT22;43277;52.672;6.984;2023-07-29T10:11:08;22.30;99.90
57434;DHT22;43277;52.672;6.984;2023-07-29T10:13:33;22.10;99.90
57434;DHT22;43277;52.672;6.984;2023-07-29T10:15:59;22.10;99.90
57434;DHT22;43277;52.672;6.984;2023-07-29T10:18:28;22.30;99.90
57434;DHT22;43277;52.672;6.984;2023-07-29T10:20:56;22.30;99.90
57434;DHT22;43277;52.672;6.984;2023-07-29T10:23:22;22.20;99.90
57434;DHT22;43277;52.672;6.984;2023-07-29T10:26:02;22.20;99.90
57434;DHT22;43277;52.672;6.984;2023-07-29T10:28:32;22.30;99.90
57434;DHT22;43277;52.672;6.984;2023-07-29T10:30:59;22.10;99.90
57434;DHT22;43277;52.672;6.984;2023-07-29T10:33:25;22.20;99.90
57434;DHT22;43277;52.672;6.984;2023-07-29T10:35:52;22.30;99.90
57434;DHT22;43277;52.672;6.984;2023-07-29T10:38:21;22.40;99.90
57434;DHT22;43277;52.672;6.984;2023-07-29T10:40:52;22.60;99.90
57434;DHT22;43277;52.672;6.984;2023-07-29T10:43:39;22.80;99.90
57434;DHT22;43277;52.672;6.984;2023-07-29T10:46:18;23.10;99.90
57434;DHT22;43277;52.672;6.984;2023-07-29T10:51:30;23.30;99.90
57434;DHT22;43277;52.672;6.984;2023-07-29T10:53:57;23.30;99.90
57434;DHT22;43277;52.672;6.984;2023-07-29T10:56:28;23.30;99.90
57434;DHT22;43277;52.672;6.984;2023-07-29T10:59:00;23.30;99.90
57434;DHT22;43277;52.672;6.984;2023-07-29T11:01:29;23.50;99.90
57434;DHT22;43277;52.672;6.984;2023-07-29T11:07:18;23.90;99.90
57434;DHT22;43277;52.672;6.984;2023-07-29T11:12:33;24.20;99.90
57434;DHT22;43277;52.672;6.984;2023-07-29T11:15:26;24.10;99.90
57434;DHT22;43277;52.672;6.984;2023-07-29T11:17:53;24.10;99.90
57434;DHT22;43277;52.672;6.984;2023-07-29T11:20:20;23.80;99.90
57434;DHT22;43277;52.672;6.984;2023-07-29T11:22:47;23.60;99.90
57434;DHT22;43277;52.672;6.984;2023-07-29T11:25:15;23.30;99.90
57434;DHT22;43277;52.672;6.984;2023-07-29T11:27:41;23.10;99.90
57434;DHT22;43277;52.672;6.984;2023-07-29T11:30:09;23.00;99.90
57434;DHT22;43277;52.672;6.984;2023-07-29T11:32:35;22.90;99.90
57434;DHT22;43277;52.672;6.984;2023-07-29T11:35:06;23.00;99.90
57434;DHT22;43277;52.672;6.984;2023-07-29T11:37:36;23.10;99.90
57434;DHT22;43277;52.672;6.984;2023-07-29T11:40:03;23.10;99.90
57434;DHT22;43277;52.672;6.984;2023-07-29T11:42:35;23.00;99.90
57434;DHT22;43277;52.672;6.984;2023-07-29T11:45:02;22.90;99.90
57434;DHT22;43277;52.672;6.984;2023-07-29T11:47:29;22.70;99.90
57434;DHT22;43277;52.672;6.984;2023-07-29T11:49:58;22.50;99.90
57434;DHT22;43277;52.672;6.984;2023-07-29T11:52:24;22.40;99.90
57434;DHT22;43277;52.672;6.984;2023-07-29T11:54:50;22.50;99.90
57434;DHT22;43277;52.672;6.984;2023-07-29T11:57:16;22.50;99.90
57434;DHT22;43277;52.672;6.984;2023-07-29T11:59:44;22.40;99.90
57434;DHT22;43277;52.672;6.984;2023-07-29T12:02:15;22.50;99.90
57434;DHT22;43277;52.672;6.984;2023-07-29T12:04:42;22.50;99.90
57434;DHT22;43277;52.672;6.984;2023-07-29T12:07:09;22.60;99.90
57434;DHT22;43277;52.672;6.984;2023-07-29T12:09:35;22.60;99.90
57434;DHT22;43277;52.672;6.984;2023-07-29T12:12:03;22.60;99.90
57434;DHT22;43277;52.672;6.984;2023-07-29T12:14:29;22.60;99.90
57434;DHT22;43277;52.672;6.984;2023-07-29T12:16:55;22.80;99.90
57434;DHT22;43277;52.672;6.984;2023-07-29T12:19:21;23.00;99.90
57434;DHT22;43277;52.672;6.984;2023-07-29T12:21:48;23.10;99.90
57434;DHT22;43277;52.672;6.984;2023-07-29T12:24:15;23.20;99.90
57434;DHT22;43277;52.672;6.984;2023-07-29T12:26:41;23.50;99.90
57434;DHT22;43277;52.672;6.984;2023-07-29T12:29:14;23.40;99.90
57434;DHT22;43277;52.672;6.984;2023-07-29T12:31:40;23.30;99.90
57434;DHT22;43277;52.672;6.984;2023-07-29T12:34:06;23.20;99.90
57434;DHT22;43277;52.672;6.984;2023-07-29T12:36:45;23.10;99.90
57434;DHT22;43277;52.672;6.984;2023-07-29T12:39:29;22.90;99.90
57434;DHT22;43277;52.672;6.984;2023-07-29T12:41:56;22.80;99.90
57434;DHT22;43277;52.672;6.984;2023-07-29T12:44:26;22.60;99.90
57434;DHT22;43277;52.672;6.984;2023-07-29T12:46:52;22.50;99.90
57434;DHT22;43277;52.672;6.984;2023-07-29T12:49:18;22.70;99.90
57434;DHT22;43277;52.672;6.984;2023-07-29T12:51:44;23.10;99.90
57434;DHT22;43277;52.672;6.984;2023-07-29T12:54:10;23.30;99.90
57434;DHT22;43277;52.672;6.984;2023-07-29T12:56:35;23.70;99.90
57434;DHT22;43277;52.672;6.984;2023-07-29T12:59:02;24.00;99.90
57434;DHT22;43277;52.672;6.984;2023-07-29T13:01:28;24.50;99.90
57434;DHT22;43277;52.672;6.984;2023-07-29T13:03:55;24.80;99.90
57434;DHT22;43277;52.672;6.984;2023-07-29T13:06:22;24.90;99.90
57434;DHT22;43277;52.672;6.984;2023-07-29T13:08:48;25.00;99.90
57434;DHT22;43277;52.672;6.984;2023-07-29T13:11:17;25.00;99.90
57434;DHT22;43277;52.672;6.984;2023-07-29T13:13:43;25.30;99.90
57434;DHT22;43277;52.672;6.984;2023-07-29T13:16:11;25.50;99.90
57434;DHT22;43277;52.672;6.984;2023-07-29T13:18:36;25.80;97.50
57434;DHT22;43277;52.672;6.984;2023-07-29T13:21:02;25.80;97.50
57434;DHT22;43277;52.672;6.984;2023-07-29T13:23:28;25.70;97.40
57434;DHT22;43277;52.672;6.984;2023-07-29T13:25:57;25.60;97.70
57434;DHT22;43277;52.672;6.984;2023-07-29T13:28:23;25.50;98.00
57434;DHT22;43277;52.672;6.984;2023-07-29T13:30:49;25.50;97.00
57434;DHT22;43277;52.672;6.984;2023-07-29T13:33:15;25.30;97.60
57434;DHT22;43277;52.672;6.984;2023-07-29T13:35:40;24.90;98.00
57434;DHT22;43277;52.672;6.984;2023-07-29T13:38:06;24.80;98.70
57434;DHT22;43277;52.672;6.984;2023-07-29T13:40:32;24.50;99.60
57434;DHT22;43277;52.672;6.984;2023-07-29T13:42:57;24.40;99.90
57434;DHT22;43277;52.672;6.984;2023-07-29T13:45:23;24.40;99.60
57434;DHT22;43277;52.672;6.984;2023-07-29T13:47:49;24.50;99.70
57434;DHT22;43277;52.672;6.984;2023-07-29T13:50:16;24.40;99.40
57434;DHT22;43277;52.672;6.984;2023-07-29T13:52:42;24.60;99.90
57434;DHT22;43277;52.672;6.984;2023-07-29T13:55:08;24.70;99.20
57434;DHT22;43277;52.672;6.984;2023-07-29T13:57:33;24.80;99.70
57434;DHT22;43277;52.672;6.984;2023-07-29T13:59:59;24.80;99.60
57434;DHT22;43277;52.672;6.984;2023-07-29T14:02:25;24.70;99.90
57434;DHT22;43277;52.672;6.984;2023-07-29T14:04:52;24.70;99.20
57434;DHT22;43277;52.672;6.984;2023-07-29T14:07:18;24.50;99.10
57434;DHT22;43277;52.672;6.984;2023-07-29T14:09:43;24.40;99.90
57434;DHT22;43277;52.672;6.984;2023-07-29T14:12:09;24.60;99.80
57434;DHT22;43277;52.672;6.984;2023-07-29T14:14:40;24.90;99.20
57434;DHT22;43277;52.672;6.984;2023-07-29T14:17:06;25.10;98.30
57434;DHT22;43277;52.672;6.984;2023-07-29T14:19:32;25.20;97.40
57434;DHT22;43277;52.672;6.984;2023-07-29T14:21:58;25.00;96.00
57434;DHT22;43277;52.672;6.984;2023-07-29T14:24:24;24.90;95.70
57434;DHT22;43277;52.672;6.984;2023-07-29T14:26:50;24.80;96.20
57434;DHT22;43277;52.672;6.984;2023-07-29T14:29:15;24.90;96.10
57434;DHT22;43277;52.672;6.984;2023-07-29T14:31:41;24.90;95.50
57434;DHT22;43277;52.672;6.984;2023-07-29T14:34:06;24.70;96.00
57434;DHT22;43277;52.672;6.984;2023-07-29T14:36:32;24.60;96.20
57434;DHT22;43277;52.672;6.984;2023-07-29T14:38:58;24.40;96.60
57434;DHT22;43277;52.672;6.984;2023-07-29T14:41:24;24.10;97.40
57434;DHT22;43277;52.672;6.984;2023-07-29T14:43:49;24.10;98.70
57434;DHT22;43277;52.672;6.984;2023-07-29T14:46:15;24.40;98.40
57434;DHT22;43277;52.672;6.984;2023-07-29T14:48:41;24.50;98.00
57434;DHT22;43277;52.672;6.984;2023-07-29T14:51:06;24.50;98.60
57434;DHT22;43277;52.672;6.984;2023-07-29T14:53:32;24.60;98.10
57434;DHT22;43277;52.672;6.984;2023-07-29T14:55:57;24.40;97.20
57434;DHT22;43277;52.672;6.984;2023-07-29T14:58:23;24.50;97.60
57434;DHT22;43277;52.672;6.984;2023-07-29T15:00:51;24.70;97.20
57434;DHT22;43277;52.672;6.984;2023-07-29T15:03:17;24.90;96.90
57434;DHT22;43277;52.672;6.984;2023-07-29T15:05:42;24.90;97.20
57434;DHT22;43277;52.672;6.984;2023-07-29T15:08:08;24.90;98.10
57434;DHT22;43277;52.672;6.984;2023-07-29T15:10:34;25.00;97.50
57434;DHT22;43277;52.672;6.984;2023-07-29T15:12:59;25.20;96.40
57434;DHT22;43277;52.672;6.984;2023-07-29T15:15:25;25.30;96.90
57434;DHT22;43277;52.672;6.984;2023-07-29T15:17:50;25.40;97.40
57434;DHT22;43277;52.672;6.984;2023-07-29T15:20:16;25.50;96.90
57434;DHT22;43277;52.672;6.984;2023-07-29T15:22:42;25.30;96.60
57434;DHT22;43277;52.672;6.984;2023-07-29T15:25:09;24.90;97.00
57434;DHT22;43277;52.672;6.984;2023-07-29T15:27:35;24.50;98.00
57434;DHT22;43277;52.672;6.984;2023-07-29T15:30:01;24.00;99.00
57434;DHT22;43277;52.672;6.984;2023-07-29T15:32:26;23.60;99.90
57434;DHT22;43277;52.672;6.984;2023-07-29T15:34:53;23.40;99.90
57434;DHT22;43277;52.672;6.984;2023-07-29T15:37:19;23.20;99.90
57434;DHT22;43277;52.672;6.984;2023-07-29T15:39:44;23.00;99.90